sensor_id;sensor_type;location;lat;lon;timestamp;temperature;humidity
69944;DHT22;57257;48.408;-4.498;2023-06-22T00:01:08;20.12;64.99
69944;DHT22;57257;48.408;-4.498;2023-06-22T00:03:33;20.04;64.90
69944;DHT22;57257;48.408;-4.498;2023-06-22T00:05:59;19.98;65.09
69944;DHT22;57257;48.408;-4.498;2023-06-22T00:08:24;19.94;65.05
69944;DHT22;57257;48.408;-4.498;2023-06-22T00:10:50;19.90;65.17
69944;DHT22;57257;48.408;-4.498;2023-06-22T00:13:16;19.88;65.46
69944;DHT22;57257;48.408;-4.498;2023-06-22T00:15:42;19.85;65.59
69944;DHT22;57257;48.408;-4.498;2023-06-22T00:18:08;19.81;65.58
69944;DHT22;57257;48.408;-4.498;2023-06-22T00:20:34;19.81;65.59
69944;DHT22;57257;48.408;-4.498;2023-06-22T00:23:02;19.78;65.65
69944;DHT22;57257;48.408;-4.498;2023-06-22T00:25:42;19.78;65.90
69944;DHT22;57257;48.408;-4.498;2023-06-22T00:28:08;19.74;65.65
69944;DHT22;57257;48.408;-4.498;2023-06-22T00:30:33;19.75;65.91
69944;DHT22;57257;48.408;-4.498;2023-06-22T00:33:00;19.74;65.73
69944;DHT22;57257;48.408;-4.498;2023-06-22T00:35:27;19.71;65.90
69944;DHT22;57257;48.408;-4.498;2023-06-22T00:37:55;19.70;65.60
69944;DHT22;57257;48.408;-4.498;2023-06-22T00:40:28;19.68;65.64
69944;DHT22;57257;48.408;-4.498;2023-06-22T00:42:54;19.64;65.54
69944;DHT22;57257;48.408;-4.498;2023-06-22T00:45:20;19.60;65.81
69944;DHT22;57257;48.408;-4.498;2023-06-22T00:47:47;19.57;65.77
69944;DHT22;57257;48.408;-4.498;2023-06-22T00:50:18;19.54;65.92
69944;DHT22;57257;48.408;-4.498;2023-06-22T00:52:53;19.50;65.90
69944;DHT22;57257;48.408;-4.498;2023-06-22T00:55:22;19.50;66.32
69944;DHT22;57257;48.408;-4.498;2023-06-22T00:57:48;19.47;66.33
69944;DHT22;57257;48.408;-4.498;2023-06-22T01:00:17;19.47;66.26
69944;DHT22;57257;48.408;-4.498;2023-06-22T01:02:44;19.43;66.14
69944;DHT22;57257;48.408;-4.498;2023-06-22T01:05:18;19.38;66.16
69944;DHT22;57257;48.408;-4.498;2023-06-22T01:10:41;19.34;66.16
69944;DHT22;57257;48.408;-4.498;2023-06-22T01:13:18;19.30;66.51
69944;DHT22;57257;48.408;-4.498;2023-06-22T01:15:50;19.30;66.41
69944;DHT22;57257;48.408;-4.498;2023-06-22T01:18:18;19.28;66.41
69944;DHT22;57257;48.408;-4.498;2023-06-22T01:20:45;19.28;66.59
69944;DHT22;57257;48.408;-4.498;2023-06-22T01:23:27;19.28;66.60
69944;DHT22;57257;48.408;-4.498;2023-06-22T01:26:16;19.27;66.69
69944;DHT22;57257;48.408;-4.498;2023-06-22T01:31:18;19.24;66.61
69944;DHT22;57257;48.408;-4.498;2023-06-22T01:33:48;19.22;66.72
69944;DHT22;57257;48.408;-4.498;2023-06-22T01:36:16;19.22;66.77
69944;DHT22;57257;48.408;-4.498;2023-06-22T01:38:43;19.17;66.78
69944;DHT22;57257;48.408;-4.498;2023-06-22T01:41:10;19.17;66.94
69944;DHT22;57257;48.408;-4.498;2023-06-22T01:43:36;19.16;67.02
69944;DHT22;57257;48.408;-4.498;2023-06-22T01:46:03;19.14;66.73
69944;DHT22;57257;48.408;-4.498;2023-06-22T01:48:28;19.07;66.95
69944;DHT22;57257;48.408;-4.498;2023-06-22T01:50:54;19.03;66.83
69944;DHT22;57257;48.408;-4.498;2023-06-22T01:53:24;18.98;67.04
69944;DHT22;57257;48.408;-4.498;2023-06-22T01:55:49;18.91;67.16
69944;DHT22;57257;48.408;-4.498;2023-06-22T01:58:15;18.89;67.31
69944;DHT22;57257;48.408;-4.498;2023-06-22T02:00:53;18.83;67.30
69944;DHT22;57257;48.408;-4.498;2023-06-22T02:03:31;18.83;67.46
69944;DHT22;57257;48.408;-4.498;2023-06-22T02:06:06;18.85;67.52
69944;DHT22;57257;48.408;-4.498;2023-06-22T02:08:40;18.86;67.52
69944;DHT22;57257;48.408;-4.498;2023-06-22T02:11:08;18.86;67.39
69944;DHT22;57257;48.408;-4.498;2023-06-22T02:13:36;18.86;67.42
69944;DHT22;57257;48.408;-4.498;2023-06-22T02:16:02;18.89;67.26
69944;DHT22;57257;48.408;-4.498;2023-06-22T02:18:27;18.85;67.27
69944;DHT22;57257;48.408;-4.498;2023-06-22T02:20:53;18.86;67.22
69944;DHT22;57257;48.408;-4.498;2023-06-22T02:23:18;18.83;67.17
69944;DHT22;57257;48.408;-4.498;2023-06-22T02:25:44;18.83;67.26
69944;DHT22;57257;48.408;-4.498;2023-06-22T02:28:10;18.82;67.22
69944;DHT22;57257;48.408;-4.498;2023-06-22T02:30:35;18.82;67.20
69944;DHT22;57257;48.408;-4.498;2023-06-22T02:33:01;18.82;67.30
69944;DHT22;57257;48.408;-4.498;2023-06-22T02:35:28;18.79;67.31
69944;DHT22;57257;48.408;-4.498;2023-06-22T02:37:58;18.77;67.28
69944;DHT22;57257;48.408;-4.498;2023-06-22T02:40:24;18.76;67.41
69944;DHT22;57257;48.408;-4.498;2023-06-22T02:42:50;18.76;67.47
69944;DHT22;57257;48.408;-4.498;2023-06-22T02:45:15;18.77;67.34
69944;DHT22;57257;48.408;-4.498;2023-06-22T02:47:41;18.72;67.38
69944;DHT22;57257;48.408;-4.498;2023-06-22T02:50:06;18.72;67.33
69944;DHT22;57257;48.408;-4.498;2023-06-22T02:52:32;18.71;67.47
69944;DHT22;57257;48.408;-4.498;2023-06-22T02:54:57;18.68;67.59
69944;DHT22;57257;48.408;-4.498;2023-06-22T02:57:23;18.68;67.49
69944;DHT22;57257;48.408;-4.498;2023-06-22T02:59:48;18.68;67.57
69944;DHT22;57257;48.408;-4.498;2023-06-22T03:02:14;18.65;67.67
69944;DHT22;57257;48.408;-4.498;2023-06-22T03:07:15;18.61;67.78
69944;DHT22;57257;48.408;-4.498;2023-06-22T03:09:42;18.61;67.73
69944;DHT22;57257;48.408;-4.498;2023-06-22T03:12:08;18.61;67.75
69944;DHT22;57257;48.408;-4.498;2023-06-22T03:14:34;18.59;67.86
69944;DHT22;57257;48.408;-4.498;2023-06-22T03:16:59;18.56;67.93
69944;DHT22;57257;48.408;-4.498;2023-06-22T03:19:29;18.56;67.75
69944;DHT22;57257;48.408;-4.498;2023-06-22T03:21:56;18.56;67.81
69944;DHT22;57257;48.408;-4.498;2023-06-22T03:24:22;18.51;67.81
69944;DHT22;57257;48.408;-4.498;2023-06-22T03:26:47;18.52;67.87
69944;DHT22;57257;48.408;-4.498;2023-06-22T03:29:13;18.49;67.83
69944;DHT22;57257;48.408;-4.498;2023-06-22T03:31:39;18.44;68.01
69944;DHT22;57257;48.408;-4.498;2023-06-22T03:34:04;18.44;67.97
69944;DHT22;57257;48.408;-4.498;2023-06-22T03:36:30;18.42;67.78
69944;DHT22;57257;48.408;-4.498;2023-06-22T03:38:55;18.38;67.90
69944;DHT22;57257;48.408;-4.498;2023-06-22T03:41:20;18.35;68.06
69944;DHT22;57257;48.408;-4.498;2023-06-22T03:43:46;18.32;68.13
69944;DHT22;57257;48.408;-4.498;2023-06-22T03:46:11;18.34;68.09
69944;DHT22;57257;48.408;-4.498;2023-06-22T03:48:37;18.32;68.23
69944;DHT22;57257;48.408;-4.498;2023-06-22T03:51:03;18.31;68.09
69944;DHT22;57257;48.408;-4.498;2023-06-22T03:53:29;18.27;68.26
69944;DHT22;57257;48.408;-4.498;2023-06-22T03:55:55;18.28;68.17
69944;DHT22;57257;48.408;-4.498;2023-06-22T03:58:21;18.24;68.22
69944;DHT22;57257;48.408;-4.498;2023-06-22T04:00:47;18.22;68.09
69944;DHT22;57257;48.408;-4.498;2023-06-22T04:03:14;18.19;68.23
69944;DHT22;57257;48.408;-4.498;2023-06-22T04:05:40;18.17;68.37
69944;DHT22;57257;48.408;-4.498;2023-06-22T04:08:06;18.14;68.39
69944;DHT22;57257;48.408;-4.498;2023-06-22T04:10:31;18.14;68.46
69944;DHT22;57257;48.408;-4.498;2023-06-22T04:12:57;18.11;68.49
69944;DHT22;57257;48.408;-4.498;2023-06-22T04:15:22;18.09;68.47
69944;DHT22;57257;48.408;-4.498;2023-06-22T04:17:48;18.05;68.34
69944;DHT22;57257;48.408;-4.498;2023-06-22T04:20:13;18.05;68.36
69944;DHT22;57257;48.408;-4.498;2023-06-22T04:22:39;18.01;68.59
69944;DHT22;57257;48.408;-4.498;2023-06-22T04:25:05;18.01;68.65
69944;DHT22;57257;48.408;-4.498;2023-06-22T04:27:33;18.00;68.64
69944;DHT22;57257;48.408;-4.498;2023-06-22T04:30:03;17.98;68.75
69944;DHT22;57257;48.408;-4.498;2023-06-22T04:32:28;17.97;68.82
69944;DHT22;57257;48.408;-4.498;2023-06-22T04:34:54;17.98;68.72
69944;DHT22;57257;48.408;-4.498;2023-06-22T04:37:19;18.01;68.74
69944;DHT22;57257;48.408;-4.498;2023-06-22T04:39:44;18.01;68.76
69944;DHT22;57257;48.408;-4.498;2023-06-22T04:42:11;18.01;68.85
69944;DHT22;57257;48.408;-4.498;2023-06-22T04:44:36;18.02;68.84
69944;DHT22;57257;48.408;-4.498;2023-06-22T04:47:02;18.01;68.84
69944;DHT22;57257;48.408;-4.498;2023-06-22T04:49:34;18.02;68.84
69944;DHT22;57257;48.408;-4.498;2023-06-22T04:52:06;18.07;68.84
69944;DHT22;57257;48.408;-4.498;2023-06-22T04:54:33;18.07;68.86
69944;DHT22;57257;48.408;-4.498;2023-06-22T04:57:03;18.08;68.93
69944;DHT22;57257;48.408;-4.498;2023-06-22T04:59:30;18.08;68.97
69944;DHT22;57257;48.408;-4.498;2023-06-22T05:02:00;18.11;68.95
69944;DHT22;57257;48.408;-4.498;2023-06-22T05:04:27;18.14;68.78
69944;DHT22;57257;48.408;-4.498;2023-06-22T05:07:00;18.18;68.99
69944;DHT22;57257;48.408;-4.498;2023-06-22T05:09:26;18.21;68.80
69944;DHT22;57257;48.408;-4.498;2023-06-22T05:11:51;18.25;68.90
69944;DHT22;57257;48.408;-4.498;2023-06-22T05:14:17;18.31;68.87
69944;DHT22;57257;48.408;-4.498;2023-06-22T05:16:44;18.35;68.78
69944;DHT22;57257;48.408;-4.498;2023-06-22T05:19:10;18.42;68.70
69944;DHT22;57257;48.408;-4.498;2023-06-22T05:21:36;18.49;68.76
69944;DHT22;57257;48.408;-4.498;2023-06-22T05:24:02;18.59;68.82
69944;DHT22;57257;48.408;-4.498;2023-06-22T05:26:32;18.71;68.75
69944;DHT22;57257;48.408;-4.498;2023-06-22T05:29:02;18.85;68.69
69944;DHT22;57257;48.408;-4.498;2023-06-22T05:31:28;18.91;68.61
69944;DHT22;57257;48.408;-4.498;2023-06-22T05:33:54;19.06;68.49
69944;DHT22;57257;48.408;-4.498;2023-06-22T05:36:20;19.22;68.23
69944;DHT22;57257;48.408;-4.498;2023-06-22T05:38:47;19.33;68.08
69944;DHT22;57257;48.408;-4.498;2023-06-22T05:41:12;19.40;67.91
69944;DHT22;57257;48.408;-4.498;2023-06-22T05:43:39;19.40;67.86
69944;DHT22;57257;48.408;-4.498;2023-06-22T05:46:05;19.44;67.74
69944;DHT22;57257;48.408;-4.498;2023-06-22T05:48:30;19.43;67.75
69944;DHT22;57257;48.408;-4.498;2023-06-22T05:50:56;19.43;67.78
69944;DHT22;57257;48.408;-4.498;2023-06-22T05:53:22;19.46;67.80
69944;DHT22;57257;48.408;-4.498;2023-06-22T05:55:48;19.44;67.86
69944;DHT22;57257;48.408;-4.498;2023-06-22T05:58:13;19.47;67.82
69944;DHT22;57257;48.408;-4.498;2023-06-22T06:00:39;19.44;67.73
69944;DHT22;57257;48.408;-4.498;2023-06-22T06:03:06;19.44;67.91
69944;DHT22;57257;48.408;-4.498;2023-06-22T06:05:32;19.50;67.98
69944;DHT22;57257;48.408;-4.498;2023-06-22T06:07:59;19.57;67.88
69944;DHT22;57257;48.408;-4.498;2023-06-22T06:10:24;19.78;68.00
69944;DHT22;57257;48.408;-4.498;2023-06-22T06:12:50;19.95;67.74
69944;DHT22;57257;48.408;-4.498;2023-06-22T06:15:16;20.21;67.64
69944;DHT22;57257;48.408;-4.498;2023-06-22T06:17:48;20.48;67.44
69944;DHT22;57257;48.408;-4.498;2023-06-22T06:20:15;20.75;67.19
69944;DHT22;57257;48.408;-4.498;2023-06-22T06:22:40;21.04;66.85
69944;DHT22;57257;48.408;-4.498;2023-06-22T06:25:08;21.26;66.46
69944;DHT22;57257;48.408;-4.498;2023-06-22T06:27:33;21.38;66.34
69944;DHT22;57257;48.408;-4.498;2023-06-22T06:29:59;21.54;66.17
69944;DHT22;57257;48.408;-4.498;2023-06-22T06:32:24;21.65;66.02
69944;DHT22;57257;48.408;-4.498;2023-06-22T06:34:50;21.74;65.68
69944;DHT22;57257;48.408;-4.498;2023-06-22T06:37:16;21.84;65.68
69944;DHT22;57257;48.408;-4.498;2023-06-22T06:39:42;21.90;65.70
69944;DHT22;57257;48.408;-4.498;2023-06-22T06:42:07;22.00;65.58
69944;DHT22;57257;48.408;-4.498;2023-06-22T06:44:33;22.08;65.49
69944;DHT22;57257;48.408;-4.498;2023-06-22T06:46:58;22.16;65.13
69944;DHT22;57257;48.408;-4.498;2023-06-22T06:49:24;22.15;65.11
69944;DHT22;57257;48.408;-4.498;2023-06-22T06:51:49;22.12;65.28
69944;DHT22;57257;48.408;-4.498;2023-06-22T06:54:17;22.23;65.35
69944;DHT22;57257;48.408;-4.498;2023-06-22T06:56:45;22.26;65.13
69944;DHT22;57257;48.408;-4.498;2023-06-22T06:59:14;22.23;64.87
69944;DHT22;57257;48.408;-4.498;2023-06-22T07:01:40;22.15;64.95
69944;DHT22;57257;48.408;-4.498;2023-06-22T07:04:05;22.15;64.88
69944;DHT22;57257;48.408;-4.498;2023-06-22T07:06:30;22.12;64.79
69944;DHT22;57257;48.408;-4.498;2023-06-22T07:08:57;22.08;64.75
69944;DHT22;57257;48.408;-4.498;2023-06-22T07:11:22;22.11;64.59
69944;DHT22;57257;48.408;-4.498;2023-06-22T07:13:48;22.16;64.66
69944;DHT22;57257;48.408;-4.498;2023-06-22T07:16:13;22.16;64.55
69944;DHT22;57257;48.408;-4.498;2023-06-22T07:18:39;22.21;64.29
69944;DHT22;57257;48.408;-4.498;2023-06-22T07:21:05;22.19;64.21
69944;DHT22;57257;48.408;-4.498;2023-06-22T07:23:32;22.41;64.37
69944;DHT22;57257;48.408;-4.498;2023-06-22T07:25:58;22.60;64.03
69944;DHT22;57257;48.408;-4.498;2023-06-22T07:28:27;22.85;63.69
69944;DHT22;57257;48.408;-4.498;2023-06-22T07:30:52;22.95;62.78
69944;DHT22;57257;48.408;-4.498;2023-06-22T07:33:18;23.04;62.11
69944;DHT22;57257;48.408;-4.498;2023-06-22T07:35:43;23.08;62.53
69944;DHT22;57257;48.408;-4.498;2023-06-22T07:38:09;23.07;61.87
69944;DHT22;57257;48.408;-4.498;2023-06-22T07:40:36;23.14;62.23
69944;DHT22;57257;48.408;-4.498;2023-06-22T07:43:02;23.31;61.97
69944;DHT22;57257;48.408;-4.498;2023-06-22T07:45:29;23.50;61.68
69944;DHT22;57257;48.408;-4.498;2023-06-22T07:47:54;23.70;60.42
69944;DHT22;57257;48.408;-4.498;2023-06-22T07:50:20;23.61;60.03
69944;DHT22;57257;48.408;-4.498;2023-06-22T07:52:45;23.54;60.47
69944;DHT22;57257;48.408;-4.498;2023-06-22T07:55:12;23.50;60.59
69944;DHT22;57257;48.408;-4.498;2023-06-22T07:57:38;23.61;60.18
69944;DHT22;57257;48.408;-4.498;2023-06-22T08:00:05;23.91;59.65
69944;DHT22;57257;48.408;-4.498;2023-06-22T08:02:40;24.06;59.10
69944;DHT22;57257;48.408;-4.498;2023-06-22T08:05:07;24.19;58.53
69944;DHT22;57257;48.408;-4.498;2023-06-22T08:07:34;24.39;58.48
69944;DHT22;57257;48.408;-4.498;2023-06-22T08:10:03;24.45;57.72
69944;DHT22;57257;48.408;-4.498;2023-06-22T08:12:29;24.53;57.64
69944;DHT22;57257;48.408;-4.498;2023-06-22T08:14:54;24.62;57.01
69944;DHT22;57257;48.408;-4.498;2023-06-22T08:17:19;24.57;56.26
69944;DHT22;57257;48.408;-4.498;2023-06-22T08:19:45;24.55;56.55
69944;DHT22;57257;48.408;-4.498;2023-06-22T08:22:10;24.66;56.68
69944;DHT22;57257;48.408;-4.498;2023-06-22T08:24:36;24.72;55.78
69944;DHT22;57257;48.408;-4.498;2023-06-22T08:27:01;24.77;56.04
69944;DHT22;57257;48.408;-4.498;2023-06-22T08:29:26;24.89;56.02
69944;DHT22;57257;48.408;-4.498;2023-06-22T08:31:52;24.86;55.42
69944;DHT22;57257;48.408;-4.498;2023-06-22T08:34:17;24.83;55.05
69944;DHT22;57257;48.408;-4.498;2023-06-22T08:36:47;24.75;55.72
69944;DHT22;57257;48.408;-4.498;2023-06-22T08:39:17;24.63;55.88
69944;DHT22;57257;48.408;-4.498;2023-06-22T08:41:42;24.60;55.54
69944;DHT22;57257;48.408;-4.498;2023-06-22T08:44:08;24.62;55.96
69944;DHT22;57257;48.408;-4.498;2023-06-22T08:46:34;24.75;55.74
69944;DHT22;57257;48.408;-4.498;2023-06-22T08:48:59;25.00;54.51
69944;DHT22;57257;48.408;-4.498;2023-06-22T08:51:25;24.99;54.71
69944;DHT22;57257;48.408;-4.498;2023-06-22T08:53:50;25.07;54.34
69944;DHT22;57257;48.408;-4.498;2023-06-22T08:56:16;25.13;54.48
69944;DHT22;57257;48.408;-4.498;2023-06-22T08:58:41;25.08;53.85
69944;DHT22;57257;48.408;-4.498;2023-06-22T09:01:07;25.00;54.24
69944;DHT22;57257;48.408;-4.498;2023-06-22T09:03:32;24.90;54.42
69944;DHT22;57257;48.408;-4.498;2023-06-22T09:06:00;24.83;54.43
69944;DHT22;57257;48.408;-4.498;2023-06-22T09:08:25;24.90;54.40
69944;DHT22;57257;48.408;-4.498;2023-06-22T09:10:51;25.11;54.15
69944;DHT22;57257;48.408;-4.498;2023-06-22T09:13:16;25.35;53.47
69944;DHT22;57257;48.408;-4.498;2023-06-22T09:15:41;25.48;52.93
69944;DHT22;57257;48.408;-4.498;2023-06-22T09:18:10;25.62;52.47
69944;DHT22;57257;48.408;-4.498;2023-06-22T09:20:36;25.70;51.76
69944;DHT22;57257;48.408;-4.498;2023-06-22T09:23:01;25.81;51.95
69944;DHT22;57257;48.408;-4.498;2023-06-22T09:25:27;25.96;51.57
69944;DHT22;57257;48.408;-4.498;2023-06-22T09:27:52;26.12;51.30
69944;DHT22;57257;48.408;-4.498;2023-06-22T09:30:18;26.14;51.14
69944;DHT22;57257;48.408;-4.498;2023-06-22T09:32:43;26.25;50.34
69944;DHT22;57257;48.408;-4.498;2023-06-22T09:35:09;26.18;50.60
69944;DHT22;57257;48.408;-4.498;2023-06-22T09:37:35;26.21;49.78
69944;DHT22;57257;48.408;-4.498;2023-06-22T09:40:01;26.26;49.50
69944;DHT22;57257;48.408;-4.498;2023-06-22T09:42:26;26.36;49.82
69944;DHT22;57257;48.408;-4.498;2023-06-22T09:44:51;26.46;49.85
69944;DHT22;57257;48.408;-4.498;2023-06-22T09:47:17;26.53;49.68
69944;DHT22;57257;48.408;-4.498;2023-06-22T09:49:42;26.63;49.66
69944;DHT22;57257;48.408;-4.498;2023-06-22T09:52:08;26.69;49.54
69944;DHT22;57257;48.408;-4.498;2023-06-22T09:54:33;26.75;49.30
69944;DHT22;57257;48.408;-4.498;2023-06-22T09:56:59;26.82;48.44
69944;DHT22;57257;48.408;-4.498;2023-06-22T09:59:24;26.90;49.00
69944;DHT22;57257;48.408;-4.498;2023-06-22T10:01:50;27.00;48.11
69944;DHT22;57257;48.408;-4.498;2023-06-22T10:04:15;27.01;48.46
69944;DHT22;57257;48.408;-4.498;2023-06-22T10:06:41;26.99;47.79
69944;DHT22;57257;48.408;-4.498;2023-06-22T10:09:07;27.04;47.38
69944;DHT22;57257;48.408;-4.498;2023-06-22T10:11:33;27.06;46.99
69944;DHT22;57257;48.408;-4.498;2023-06-22T10:14:00;27.06;47.59
69944;DHT22;57257;48.408;-4.498;2023-06-22T10:16:30;26.91;47.87
69944;DHT22;57257;48.408;-4.498;2023-06-22T10:18:56;26.77;47.78
69944;DHT22;57257;48.408;-4.498;2023-06-22T10:21:21;26.79;47.45
69944;DHT22;57257;48.408;-4.498;2023-06-22T10:23:47;26.75;47.38
69944;DHT22;57257;48.408;-4.498;2023-06-22T10:26:12;26.69;47.27
69944;DHT22;57257;48.408;-4.498;2023-06-22T10:28:37;26.57;47.62
69944;DHT22;57257;48.408;-4.498;2023-06-22T10:31:03;26.43;48.01
69944;DHT22;57257;48.408;-4.498;2023-06-22T10:33:28;26.49;48.33
69944;DHT22;57257;48.408;-4.498;2023-06-22T10:35:53;26.61;47.79
69944;DHT22;57257;48.408;-4.498;2023-06-22T10:38:19;26.63;47.91
69944;DHT22;57257;48.408;-4.498;2023-06-22T10:40:45;26.64;47.76
69944;DHT22;57257;48.408;-4.498;2023-06-22T10:43:10;26.72;47.63
69944;DHT22;57257;48.408;-4.498;2023-06-22T10:45:36;26.80;47.36
69944;DHT22;57257;48.408;-4.498;2023-06-22T10:48:01;26.91;47.07
69944;DHT22;57257;48.408;-4.498;2023-06-22T10:50:27;26.79;46.68
69944;DHT22;57257;48.408;-4.498;2023-06-22T10:52:54;26.66;46.87
69944;DHT22;57257;48.408;-4.498;2023-06-22T10:55:19;26.70;47.02
69944;DHT22;57257;48.408;-4.498;2023-06-22T10:57:45;26.70;47.11
69944;DHT22;57257;48.408;-4.498;2023-06-22T11:00:13;26.66;46.86
69944;DHT22;57257;48.408;-4.498;2023-06-22T11:02:39;26.72;47.34
69944;DHT22;57257;48.408;-4.498;2023-06-22T11:05:04;26.72;47.68
69944;DHT22;57257;48.408;-4.498;2023-06-22T11:07:30;26.66;47.47
69944;DHT22;57257;48.408;-4.498;2023-06-22T11:09:56;26.56;47.64
69944;DHT22;57257;48.408;-4.498;2023-06-22T11:12:21;26.59;47.84
69944;DHT22;57257;48.408;-4.498;2023-06-22T11:14:47;26.53;47.72
69944;DHT22;57257;48.408;-4.498;2023-06-22T11:17:12;26.56;47.70
69944;DHT22;57257;48.408;-4.498;2023-06-22T11:19:38;26.59;48.07
69944;DHT22;57257;48.408;-4.498;2023-06-22T11:22:04;26.63;47.81
69944;DHT22;57257;48.408;-4.498;2023-06-22T11:24:29;26.60;47.83
69944;DHT22;57257;48.408;-4.498;2023-06-22T11:26:55;26.69;47.33
69944;DHT22;57257;48.408;-4.498;2023-06-22T11:29:20;26.75;47.20
69944;DHT22;57257;48.408;-4.498;2023-06-22T11:31:45;26.67;47.24
69944;DHT22;57257;48.408;-4.498;2023-06-22T11:34:11;26.67;47.77
69944;DHT22;57257;48.408;-4.498;2023-06-22T11:36:36;26.70;47.61
69944;DHT22;57257;48.408;-4.498;2023-06-22T11:39:02;26.63;47.25
69944;DHT22;57257;48.408;-4.498;2023-06-22T11:41:27;26.64;47.64
69944;DHT22;57257;48.408;-4.498;2023-06-22T11:43:53;26.77;47.52
69944;DHT22;57257;48.408;-4.498;2023-06-22T11:46:18;26.90;46.63
69944;DHT22;57257;48.408;-4.498;2023-06-22T11:48:47;26.97;46.36
69944;DHT22;57257;48.408;-4.498;2023-06-22T11:51:14;27.01;46.65
69944;DHT22;57257;48.408;-4.498;2023-06-22T11:53:39;27.00;46.70
69944;DHT22;57257;48.408;-4.498;2023-06-22T11:56:04;26.94;46.70
69944;DHT22;57257;48.408;-4.498;2023-06-22T11:58:30;27.01;46.80
69944;DHT22;57257;48.408;-4.498;2023-06-22T12:00:55;27.12;46.54
69944;DHT22;57257;48.408;-4.498;2023-06-22T12:03:21;27.21;46.20
69944;DHT22;57257;48.408;-4.498;2023-06-22T12:05:47;27.24;44.24
69944;DHT22;57257;48.408;-4.498;2023-06-22T12:08:12;27.20;45.35
69944;DHT22;57257;48.408;-4.498;2023-06-22T12:10:39;27.11;45.77
69944;DHT22;57257;48.408;-4.498;2023-06-22T12:13:04;27.17;45.83
69944;DHT22;57257;48.408;-4.498;2023-06-22T12:15:29;27.26;45.94
69944;DHT22;57257;48.408;-4.498;2023-06-22T12:17:55;27.34;45.52
69944;DHT22;57257;48.408;-4.498;2023-06-22T12:20:20;27.41;45.45
69944;DHT22;57257;48.408;-4.498;2023-06-22T12:22:46;27.41;45.13
69944;DHT22;57257;48.408;-4.498;2023-06-22T12:25:12;27.40;44.82
69944;DHT22;57257;48.408;-4.498;2023-06-22T12:27:38;27.44;45.12
69944;DHT22;57257;48.408;-4.498;2023-06-22T12:30:04;27.51;45.17
69944;DHT22;57257;48.408;-4.498;2023-06-22T12:32:29;27.62;44.83
69944;DHT22;57257;48.408;-4.498;2023-06-22T12:34:56;27.54;44.94
69944;DHT22;57257;48.408;-4.498;2023-06-22T12:37:22;27.54;44.82
69944;DHT22;57257;48.408;-4.498;2023-06-22T12:39:48;27.48;45.28
69944;DHT22;57257;48.408;-4.498;2023-06-22T12:42:13;27.52;45.01
69944;DHT22;57257;48.408;-4.498;2023-06-22T12:44:39;27.48;44.92
69944;DHT22;57257;48.408;-4.498;2023-06-22T12:47:07;27.58;45.04
69944;DHT22;57257;48.408;-4.498;2023-06-22T12:49:34;27.66;44.90
69944;DHT22;57257;48.408;-4.498;2023-06-22T12:52:00;27.81;44.58
69944;DHT22;57257;48.408;-4.498;2023-06-22T12:54:26;27.64;44.15
69944;DHT22;57257;48.408;-4.498;2023-06-22T12:56:51;27.58;44.60
69944;DHT22;57257;48.408;-4.498;2023-06-22T12:59:17;27.69;44.58
69944;DHT22;57257;48.408;-4.498;2023-06-22T13:01:43;27.80;44.80
69944;DHT22;57257;48.408;-4.498;2023-06-22T13:04:12;27.89;45.15
69944;DHT22;57257;48.408;-4.498;2023-06-22T13:06:42;28.05;44.95
69944;DHT22;57257;48.408;-4.498;2023-06-22T13:09:10;28.15;44.63
69944;DHT22;57257;48.408;-4.498;2023-06-22T13:11:35;28.23;45.13
69944;DHT22;57257;48.408;-4.498;2023-06-22T13:14:01;28.43;45.08
69944;DHT22;57257;48.408;-4.498;2023-06-22T13:16:26;28.57;44.65
69944;DHT22;57257;48.408;-4.498;2023-06-22T13:18:51;28.71;44.69
69944;DHT22;57257;48.408;-4.498;2023-06-22T13:21:17;28.77;44.55
69944;DHT22;57257;48.408;-4.498;2023-06-22T13:23:42;28.80;43.93
69944;DHT22;57257;48.408;-4.498;2023-06-22T13:26:08;28.80;42.52
69944;DHT22;57257;48.408;-4.498;2023-06-22T13:28:33;28.61;42.67
69944;DHT22;57257;48.408;-4.498;2023-06-22T13:30:59;28.52;43.55
69944;DHT22;57257;48.408;-4.498;2023-06-22T13:33:24;28.60;43.38
69944;DHT22;57257;48.408;-4.498;2023-06-22T13:35:50;28.74;43.78
69944;DHT22;57257;48.408;-4.498;2023-06-22T13:38:15;28.81;42.74
69944;DHT22;57257;48.408;-4.498;2023-06-22T13:40:40;28.79;43.07
69944;DHT22;57257;48.408;-4.498;2023-06-22T13:43:06;28.80;42.23
69944;DHT22;57257;48.408;-4.498;2023-06-22T13:45:32;28.83;41.65
69944;DHT22;57257;48.408;-4.498;2023-06-22T13:47:58;28.80;42.38
69944;DHT22;57257;48.408;-4.498;2023-06-22T13:50:23;28.84;42.23
69944;DHT22;57257;48.408;-4.498;2023-06-22T13:52:49;28.86;41.60
69944;DHT22;57257;48.408;-4.498;2023-06-22T13:55:14;28.86;42.56
69944;DHT22;57257;48.408;-4.498;2023-06-22T13:57:40;28.96;42.48
69944;DHT22;57257;48.408;-4.498;2023-06-22T14:00:07;29.07;42.26
69944;DHT22;57257;48.408;-4.498;2023-06-22T14:02:33;29.20;42.27
69944;DHT22;57257;48.408;-4.498;2023-06-22T14:05:00;29.20;42.30
69944;DHT22;57257;48.408;-4.498;2023-06-22T14:07:25;29.30;42.45
69944;DHT22;57257;48.408;-4.498;2023-06-22T14:09:51;29.37;42.04
69944;DHT22;57257;48.408;-4.498;2023-06-22T14:12:17;29.51;42.28
69944;DHT22;57257;48.408;-4.498;2023-06-22T14:14:45;29.51;41.30
69944;DHT22;57257;48.408;-4.498;2023-06-22T14:17:10;29.47;41.74
69944;DHT22;57257;48.408;-4.498;2023-06-22T14:19:36;29.42;41.80
69944;DHT22;57257;48.408;-4.498;2023-06-22T14:22:02;29.54;41.91
69944;DHT22;57257;48.408;-4.498;2023-06-22T14:24:27;29.57;41.76
69944;DHT22;57257;48.408;-4.498;2023-06-22T14:26:54;29.65;41.83
69944;DHT22;57257;48.408;-4.498;2023-06-22T14:29:20;29.76;41.91
69944;DHT22;57257;48.408;-4.498;2023-06-22T14:31:46;29.93;41.58
69944;DHT22;57257;48.408;-4.498;2023-06-22T14:34:12;30.13;41.09
69944;DHT22;57257;48.408;-4.498;2023-06-22T14:36:37;30.25;40.48
69944;DHT22;57257;48.408;-4.498;2023-06-22T14:39:03;30.30;40.04
69944;DHT22;57257;48.408;-4.498;2023-06-22T14:41:30;30.36;40.17
69944;DHT22;57257;48.408;-4.498;2023-06-22T14:43:55;30.56;40.01
69944;DHT22;57257;48.408;-4.498;2023-06-22T14:46:20;30.63;39.51
69944;DHT22;57257;48.408;-4.498;2023-06-22T14:48:46;30.60;39.81
69944;DHT22;57257;48.408;-4.498;2023-06-22T14:51:12;30.66;39.94
69944;DHT22;57257;48.408;-4.498;2023-06-22T14:53:38;30.66;39.52
69944;DHT22;57257;48.408;-4.498;2023-06-22T14:56:03;30.76;40.18
69944;DHT22;57257;48.408;-4.498;2023-06-22T14:58:33;30.84;40.03
69944;DHT22;57257;48.408;-4.498;2023-06-22T15:01:07;30.93;40.02
69944;DHT22;57257;48.408;-4.498;2023-06-22T15:03:35;30.93;39.03
69944;DHT22;57257;48.408;-4.498;2023-06-22T15:06:01;30.84;39.58
69944;DHT22;57257;48.408;-4.498;2023-06-22T15:08:27;30.84;39.62
69944;DHT22;57257;48.408;-4.498;2023-06-22T15:10:53;30.90;39.04
69944;DHT22;57257;48.408;-4.498;2023-06-22T15:13:49;30.87;39.64
69944;DHT22;57257;48.408;-4.498;2023-06-22T15:16:15;30.98;39.19
69944;DHT22;57257;48.408;-4.498;2023-06-22T15:18:40;31.01;39.37